Time;durP1;ratioP1;P1;durP2;ratioP2;P2;SDS_P1;SDS_P2;PMS_P1;PMS_P2;Temp;Humidity;BMP_temperature;BMP_pressure;BME280_temperature;BME280_humidity;BME280_pressure;Samples;Min_cycle;Max_cycle;Signal;HPM_P1;HPM_P2
2022/11/22 00:02:19;;;;;;;15.98;5.55;;;;;;;6.20;100.00;98831.19;5072433;28;20404;-76
2022/11/22 00:04:44;;;;;;;15.27;5.50;;;;;;;6.21;100.00;98830.16;5078080;28;20033;-76
2022/11/22 00:07:10;;;;;;;15.48;6.55;;;;;;;6.34;100.00;98846.16;5040631;28;20036;-76
2022/11/22 00:09:36;;;;;;;15.63;5.95;;;;;;;6.33;100.00;98839.03;5076373;28;20052;-77
2022/11/22 00:12:02;;;;;;;14.43;4.38;;;;;;;6.30;100.00;98830.31;5058878;28;20393;-76
2022/11/22 00:14:28;;;;;;;15.23;5.38;;;;;;;6.40;100.00;98839.31;5064699;28;20036;-77
2022/11/22 00:16:54;;;;;;;24.15;6.20;;;;;;;6.39;100.00;98838.44;5062662;28;20042;-77
2022/11/22 00:19:19;;;;;;;10.27;4.80;;;;;;;6.40;100.00;98839.31;5071167;28;20043;-77
2022/11/22 00:21:44;;;;;;;20.73;4.68;;;;;;;6.31;100.00;98821.16;5061481;28;20059;-77
2022/11/22 00:24:13;;;;;;;14.45;4.75;;;;;;;6.39;100.00;98835.72;5084990;28;20036;-77
2022/11/22 00:26:39;;;;;;;15.25;4.60;;;;;;;6.31;100.00;98815.72;5049675;28;20131;-77
2022/11/22 00:29:04;;;;;;;20.50;5.18;;;;;;;6.47;100.00;98839.59;5063850;28;20052;-76
2022/11/22 00:31:30;;;;;;;17.50;5.00;;;;;;;6.36;100.00;98844.19;5063735;28;20065;-76
2022/11/22 00:33:57;;;;;;;17.05;4.95;;;;;;;6.38;100.00;98838.63;5047874;28;20075;-76
2022/11/22 00:36:23;;;;;;;13.88;4.60;;;;;;;6.38;100.00;98833.19;5067610;28;20429;-76
2022/11/22 00:38:49;;;;;;;15.00;5.07;;;;;;;6.51;100.00;98839.16;5078964;28;20415;-76
2022/11/22 00:41:14;;;;;;;13.85;4.63;;;;;;;6.43;100.00;98828.16;5061511;28;20032;-76
2022/11/22 00:43:40;;;;;;;20.17;5.45;;;;;;;6.55;100.00;98837.00;5075832;28;20039;-76
2022/11/22 00:46:06;;;;;;;19.92;5.15;;;;;;;6.47;100.00;98823.28;5061195;28;20059;-76
2022/11/22 00:48:33;;;;;;;13.70;4.93;;;;;;;6.50;100.00;98834.72;5063145;28;20077;-77
2022/11/22 00:50:58;;;;;;;15.65;5.80;;;;;;;6.53;100.00;98825.44;5079910;28;20460;-77
2022/11/22 00:53:24;;;;;;;13.43;4.85;;;;;;;6.61;100.00;98842.72;5064110;28;20032;-76
2022/11/22 00:55:49;;;;;;;15.68;5.90;;;;;;;6.51;100.00;98843.72;5044048;28;20251;-76
2022/11/22 00:58:15;;;;;;;16.83;5.00;;;;;;;6.51;100.00;98841.88;5061285;28;20037;-76
2022/11/22 01:00:41;;;;;;;13.50;4.72;;;;;;;6.37;100.00;98829.59;5060855;28;20063;-77
2022/11/22 01:03:10;;;;;;;21.35;6.40;;;;;;;6.33;100.00;98824.56;5088162;28;20031;-77
2022/11/22 01:05:36;;;;;;;15.73;4.95;;;;;;;6.33;100.00;98838.16;5075184;28;20492;-77
2022/11/22 01:08:02;;;;;;;16.83;5.45;;;;;;;6.19;100.00;98831.31;5062643;28;20051;-77
2022/11/22 01:10:28;;;;;;;18.73;5.25;;;;;;;6.17;100.00;98823.31;5064871;28;20119;-77
2022/11/22 01:12:55;;;;;;;14.00;4.70;;;;;;;6.18;100.00;98830.47;5056392;28;20510;-76
2022/11/22 01:15:21;;;;;;;10.70;4.25;;;;;;;6.19;100.00;98823.16;5060949;28;20037;-77
2022/11/22 01:17:47;;;;;;;15.85;4.72;;;;;;;6.21;100.00;98830.16;5076728;28;20346;-77
2022/11/22 01:20:12;;;;;;;12.98;4.38;;;;;;;6.16;100.00;98828.88;5065015;28;20028;-76
2022/11/22 01:22:38;;;;;;;16.52;4.80;;;;;;;6.20;100.00;98843.91;5036677;28;20036;-77
2022/11/22 01:25:05;;;;;;;11.27;4.13;;;;;;;6.16;100.00;98835.16;5046015;28;20036;-76
2022/11/22 01:27:30;;;;;;;13.75;4.15;;;;;;;6.16;100.00;98835.16;5067659;28;20060;-77
2022/11/22 01:29:56;;;;;;;15.35;4.53;;;;;;;6.21;100.00;98837.47;5080023;28;20039;-78
2022/11/22 01:32:21;;;;;;;13.52;4.60;;;;;;;6.13;100.00;98826.47;5072200;28;20121;-77
2022/11/22 01:34:47;;;;;;;11.98;4.10;;;;;;;6.15;100.00;98846.19;5078270;28;20023;-77
2022/11/22 01:37:15;;;;;;;17.92;4.25;;;;;;;6.10;100.00;98851.19;5054604;28;20100;-76
2022/11/22 01:39:41;;;;;;;14.10;3.70;;;;;;;6.10;100.00;98857.50;5078431;28;20399;-76
2022/11/22 01:42:08;;;;;;;11.40;3.97;;;;;;;6.02;100.00;98857.34;5053044;28;20030;-77
2022/11/22 01:44:34;;;;;;;15.75;3.22;;;;;;;5.83;100.00;98831.84;5074382;28;20032;-76
2022/11/22 01:47:05;;;;;;;18.80;4.45;;;;;;;6.03;100.00;98859.94;5077979;28;20060;-77
2022/11/22 01:49:36;;;;;;;13.63;2.95;;;;;;;6.10;100.00;98865.66;5077479;28;20085;-77
2022/11/22 01:52:06;;;;;;;18.30;3.75;;;;;;;6.09;100.00;98861.22;5072479;28;20032;-77
2022/11/22 01:54:37;;;;;;;19.25;3.45;;;;;;;6.12;100.00;98857.38;5074509;28;20032;-77
2022/11/22 01:57:09;;;;;;;21.98;3.17;;;;;;;6.00;100.00;98854.78;5074126;28;20039;-77
2022/11/22 01:59:37;;;;;;;27.58;4.00;;;;;;;6.02;100.00;98871.78;5074791;28;20057;-76
2022/11/22 02:02:04;;;;;;;16.13;2.65;;;;;;;5.94;100.00;98852.59;5059915;28;20020;-76
2022/11/22 02:04:32;;;;;;;16.88;3.40;;;;;;;6.00;100.00;98870.19;5078127;28;20047;-77
2022/11/22 02:07:26;;;;;;;26.48;3.35;;;;;;;5.91;100.00;98869.16;5066091;28;20031;-77
2022/11/22 02:09:52;;;;;;;24.33;3.00;;;;;;;5.99;100.00;98887.50;5060067;28;20166;-76
2022/11/22 02:12:22;;;;;;;21.17;3.72;;;;;;;5.87;100.00;98868.59;5078253;28;20072;-76
2022/11/22 02:14:48;;;;;;;30.55;3.28;;;;;;;5.96;100.00;98883.22;5045720;28;20471;-77
2022/11/22 02:17:15;;;;;;;26.73;3.63;;;;;;;6.02;100.00;98884.53;5043601;28;20028;-77
2022/11/22 02:19:48;;;;;;;25.52;2.92;;;;;;;6.05;100.00;98887.81;5087527;28;20044;-77
2022/11/22 02:22:22;;;;;;;32.60;3.42;;;;;;;6.08;100.00;98889.38;5090480;28;20520;-76
2022/11/22 02:25:01;;;;;;;21.95;3.35;;;;;;;6.09;100.00;98893.81;5079362;28;20043;-76
2022/11/22 02:27:26;;;;;;;21.38;3.30;;;;;;;5.93;100.00;98864.44;5095205;28;20085;-76
2022/11/22 02:29:52;;;;;;;25.65;3.13;;;;;;;5.94;100.00;98877.03;5078941;28;20111;-77
2022/11/22 02:32:17;;;;;;;24.13;3.63;;;;;;;5.82;100.00;98861.84;5096124;28;20032;-78
2022/11/22 02:34:47;;;;;;;26.80;2.95;;;;;;;5.88;100.00;98866.72;5077778;28;20111;-77
2022/11/22 02:37:16;;;;;;;33.03;3.80;;;;;;;5.90;100.00;98870.16;5067215;28;20059;-77
2022/11/22 02:39:44;;;;;;;22.13;2.90;;;;;;;5.98;100.00;98883.06;5092939;28;20028;-77
2022/11/22 02:42:10;;;;;;;20.15;2.40;;;;;;;5.94;100.00;98876.19;5091440;28;20028;-77
2022/11/22 02:44:38;;;;;;;20.33;3.22;;;;;;;5.95;100.00;98895.06;5063050;28;20040;-77
2022/11/22 02:47:04;;;;;;;30.70;3.20;;;;;;;5.98;100.00;98897.50;5058443;28;20123;-77
2022/11/22 02:49:30;;;;;;;21.20;3.28;;;;;;;5.90;100.00;98886.44;5076847;28;20478;-77
2022/11/22 02:51:56;;;;;;;25.90;3.20;;;;;;;5.95;100.00;98895.06;5096665;28;20032;-77
2022/11/22 02:54:22;;;;;;;24.58;2.33;;;;;;;5.91;100.00;98888.19;5062124;28;20536;-76
2022/11/22 02:56:47;;;;;;;18.35;2.45;;;;;;;5.89;100.00;98891.03;5077385;28;20036;-76
2022/11/22 02:59:13;;;;;;;25.20;3.20;;;;;;;5.92;100.00;98891.75;5093993;28;20062;-77
2022/11/22 03:01:39;;;;;;;18.95;3.40;;;;;;;5.92;100.00;98903.50;5062397;28;20032;-77
2022/11/22 03:04:06;;;;;;;17.20;4.05;;;;;;;5.85;100.00;98895.03;5091763;28;20043;-77
2022/11/22 03:06:32;;;;;;;23.08;2.95;;;;;;;5.85;100.00;98914.06;5092669;28;20054;-77
2022/11/22 03:08:57;;;;;;;27.63;2.97;;;;;;;5.85;100.00;98915.88;5079542;28;20036;-76
2022/11/22 03:11:25;;;;;;;21.02;3.22;;;;;;;5.74;100.00;98905.13;5083439;28;20116;-76
2022/11/22 03:13:50;;;;;;;26.17;2.75;;;;;;;5.73;100.00;98906.16;5048916;28;20034;-78
2022/11/22 03:16:16;;;;;;;27.33;2.85;;;;;;;5.68;100.00;98925.56;5077708;28;20436;-76
2022/11/22 03:18:41;;;;;;;25.05;3.13;;;;;;;5.64;100.00;98907.84;5042250;28;20044;-76
2022/11/22 03:21:09;;;;;;;22.48;2.75;;;;;;;5.71;100.00;98928.00;5068135;28;20066;-76
2022/11/22 03:23:35;;;;;;;18.52;3.03;;;;;;;5.73;100.00;98925.16;5078145;28;20032;-77
2022/11/22 03:26:09;;;;;;;12.25;2.08;;;;;;;5.58;100.00;98924.69;5080336;28;20550;-77
2022/11/22 03:28:34;;;;;;;36.65;3.92;;;;;;;5.52;100.00;98917.94;5079290;28;20115;-77
2022/11/22 03:31:00;;;;;;;28.13;2.88;;;;;;;5.47;100.00;98910.22;5076766;28;20063;-77
2022/11/22 03:33:26;;;;;;;19.77;2.28;;;;;;;5.50;100.00;98926.22;5090359;28;20034;-77
2022/11/22 03:35:57;;;;;;;28.27;2.85;;;;;;;5.52;100.00;98929.66;5040306;28;20036;-77
2022/11/22 03:38:23;;;;;;;27.73;3.47;;;;;;;5.45;100.00;98924.94;5058282;28;20033;-77
2022/11/22 03:40:48;;;;;;;28.58;2.63;;;;;;;5.44;100.00;98937.63;5072193;28;20918;-77
2022/11/22 03:43:13;;;;;;;16.10;2.42;;;;;;;5.46;100.00;98934.75;5057860;28;20077;-77
2022/11/22 03:45:47;;;;;;;24.60;3.03;;;;;;;5.38;100.00;98921.91;5061634;28;20043;-77
2022/11/22 03:48:13;;;;;;;22.92;3.22;;;;;;;5.24;100.00;98933.13;5077837;28;20048;-77
2022/11/22 03:50:39;;;;;;;25.38;2.45;;;;;;;5.39;100.00;98939.03;5070855;28;20067;-77
2022/11/22 03:53:04;;;;;;;20.65;3.13;;;;;;;5.37;100.00;98941.03;5079142;28;20040;-76
2022/11/22 03:55:31;;;;;;;21.55;2.38;;;;;;;5.38;100.00;98940.03;5074506;28;20569;-76
2022/11/22 03:57:57;;;;;;;14.85;2.22;;;;;;;5.41;100.00;98947.88;5070220;28;20028;-77
2022/11/22 04:00:23;;;;;;;28.88;3.25;;;;;;;5.24;100.00;98939.38;5042229;28;20115;-77
2022/11/22 04:02:48;;;;;;;28.05;4.07;;;;;;;5.31;100.00;98950.56;5056086;28;20071;-78
2022/11/22 04:05:14;;;;;;;18.38;2.38;;;;;;;5.33;100.00;98954.88;5042594;28;20123;-77
2022/11/22 04:07:39;;;;;;;20.45;2.83;;;;;;;5.31;100.00;98951.44;5068767;28;20039;-77
2022/11/22 04:10:06;;;;;;;14.98;2.38;;;;;;;5.29;100.00;98952.56;5094312;28;20082;-77
2022/11/22 04:12:32;;;;;;;34.90;4.05;;;;;;;5.27;100.00;98951.84;5074225;28;20538;-77
2022/11/22 04:15:06;;;;;;;22.17;2.60;;;;;;;5.17;100.00;98961.78;5042717;28;20035;-77
2022/11/22 04:17:40;;;;;;;11.15;2.25;;;;;;;5.09;100.00;98947.03;5076275;28;20103;-77
2022/11/22 04:23:04;;;;;;;16.67;2.38;;;;;;;5.08;100.00;98960.72;5078613;28;20515;-77
2022/11/22 04:25:31;;;;;;;14.65;1.85;;;;;;;4.95;100.00;98967.22;5081837;28;20024;-77
2022/11/22 04:27:57;;;;;;;19.50;2.67;;;;;;;4.99;100.00;98970.53;5072375;28;20033;-78
2022/11/22 04:33:09;;;;;;;12.88;1.63;;;;;;;4.93;100.00;98969.19;5084211;28;20056;-77
2022/11/22 04:35:35;;;;;;;21.73;2.50;;;;;;;4.85;100.00;98966.28;5078549;28;20024;-77
2022/11/22 04:38:00;;;;;;;14.63;1.92;;;;;;;4.86;100.00;98978.84;5064409;28;20052;-77
2022/11/22 04:40:25;;;;;;;28.05;2.25;;;;;;;4.86;100.00;98973.44;5094113;28;20032;-77
2022/11/22 04:45:35;;;;;;;12.73;2.10;;;;;;;4.87;100.00;98977.88;5085376;28;20039;-77
2022/11/22 04:48:00;;;;;;;28.15;2.45;;;;;;;4.84;100.00;98980.84;5051085;28;20044;-77
2022/11/22 04:53:13;;;;;;;8.73;1.70;;;;;;;4.63;100.00;98980.81;5096985;28;20035;-77
2022/11/22 04:55:39;;;;;;;19.35;1.80;;;;;;;4.67;100.00;98992.25;5093813;28;20032;-76
2022/11/22 04:58:05;;;;;;;16.23;2.28;;;;;;;4.56;100.00;98976.91;5073363;28;20427;-76
2022/11/22 05:00:32;;;;;;;14.07;1.55;;;;;;;4.59;100.00;98992.91;5095006;28;20032;-77
2022/11/22 05:03:01;;;;;;;12.55;1.50;;;;;;;4.62;100.00;98989.06;5080064;28;20039;-77
2022/11/22 05:05:27;;;;;;;17.42;2.47;;;;;;;4.56;100.00;98975.06;5066959;28;20131;-77
2022/11/22 05:07:53;;;;;;;27.77;3.92;;;;;;;4.63;100.00;98990.81;5081202;28;20447;-77
2022/11/22 05:10:19;;;;;;;13.85;2.25;;;;;;;4.55;100.00;98991.44;5060360;28;20032;-77
2022/11/22 05:12:44;;;;;;;20.70;2.50;;;;;;;4.49;100.00;98975.69;5075602;28;20496;-77
2022/11/22 05:15:10;;;;;;;23.92;3.22;;;;;;;4.54;100.00;98995.13;5076875;28;20029;-78
2022/11/22 05:17:37;;;;;;;13.80;1.83;;;;;;;4.53;100.00;98999.72;5076820;28;20527;-77
2022/11/22 05:20:03;;;;;;;12.20;2.30;;;;;;;4.65;100.00;98999.66;5077977;28;20080;-77
2022/11/22 05:25:14;;;;;;;14.73;2.25;;;;;;;4.35;100.00;98996.69;5092797;28;20043;-77
2022/11/22 05:27:40;;;;;;;14.88;2.47;;;;;;;4.41;100.00;98981.75;5087692;28;20028;-78
2022/11/22 05:30:06;;;;;;;18.77;2.05;;;;;;;4.39;100.00;98989.16;5059246;28;20025;-77
2022/11/22 05:32:32;;;;;;;16.45;4.68;;;;;;;4.35;100.00;98993.13;5077518;28;20122;-78
2022/11/22 05:34:58;;;;;;;16.73;2.30;;;;;;;4.33;100.00;98993.25;5060215;28;20032;-78
2022/11/22 05:37:24;;;;;;;11.40;1.98;;;;;;;4.45;100.00;98987.81;5096146;28;20103;-78
2022/11/22 05:39:49;;;;;;;13.13;1.70;;;;;;;4.39;100.00;98987.34;5078882;28;20031;-78
2022/11/22 05:42:15;;;;;;;16.25;2.17;;;;;;;4.37;100.00;98989.28;5096424;28;20059;-78
2022/11/22 05:44:41;;;;;;;21.88;2.70;;;;;;;4.30;100.00;98971.84;5095451;28;20428;-78
2022/11/22 05:47:07;;;;;;;21.58;2.75;;;;;;;4.19;100.00;98975.44;5087000;28;20043;-78
2022/11/22 05:49:32;;;;;;;25.42;3.63;;;;;;;4.20;100.00;98970.91;5099832;28;20317;-78
2022/11/22 05:51:58;;;;;;;17.02;3.13;;;;;;;4.16;100.00;98970.25;5063483;28;20044;-78
2022/11/22 05:54:24;;;;;;;22.02;3.00;;;;;;;4.32;100.00;98979.84;5074741;28;20039;-78
2022/11/22 05:56:51;;;;;;;22.70;2.78;;;;;;;4.29;100.00;98978.22;5061937;28;20036;-77
2022/11/22 05:59:17;;;;;;;21.67;2.25;;;;;;;4.27;100.00;98971.25;5061349;28;20025;-78
2022/11/22 06:01:42;;;;;;;17.85;2.58;;;;;;;4.31;100.00;98986.22;5056343;28;20155;-78
2022/11/22 06:04:08;;;;;;;16.08;2.30;;;;;;;4.12;100.00;98968.81;5064911;28;20052;-78
2022/11/22 06:06:33;;;;;;;20.08;2.55;;;;;;;4.16;100.00;98981.09;5078614;28;20197;-78
2022/11/22 06:08:59;;;;;;;16.60;2.13;;;;;;;4.04;100.00;98965.88;5077798;28;20067;-78
2022/11/22 06:11:26;;;;;;;14.15;2.80;;;;;;;4.26;100.00;99002.00;5072295;28;20044;-78
2022/11/22 06:13:55;;;;;;;16.27;2.03;;;;;;;4.10;100.00;98987.03;5084800;28;20028;-78
2022/11/22 06:16:21;;;;;;;7.18;1.48;;;;;;;4.05;100.00;98973.88;5070254;28;20028;-78
2022/11/22 06:18:47;;;;;;;20.85;3.22;;;;;;;4.18;100.00;98989.09;5075183;28;20028;-78
2022/11/22 06:21:17;;;;;;;22.30;2.35;;;;;;;4.23;100.00;98987.75;5091838;28;20032;-77
2022/11/22 06:23:42;;;;;;;19.83;2.42;;;;;;;4.19;100.00;98991.69;5078151;28;20024;-78
2022/11/22 06:26:10;;;;;;;18.02;2.30;;;;;;;4.22;100.00;99010.38;5064415;28;20043;-79
2022/11/22 06:28:38;;;;;;;13.93;1.50;;;;;;;4.13;100.00;98986.78;5076052;28;20399;-79
2022/11/22 06:31:04;;;;;;;28.25;2.95;;;;;;;4.16;100.00;99004.63;5068872;28;20028;-78
2022/11/22 06:33:31;;;;;;;17.33;2.67;;;;;;;4.17;100.00;99009.06;5080628;28;20047;-78
2022/11/22 06:36:02;;;;;;;26.25;2.63;;;;;;;4.10;100.00;99003.28;5081637;28;20035;-78
2022/11/22 06:38:27;;;;;;;14.65;2.03;;;;;;;4.10;100.00;99003.28;5076396;28;20052;-78
2022/11/22 06:41:01;;;;;;;14.10;1.95;;;;;;;4.12;100.00;98998.59;5066644;28;20073;-79
2022/11/22 06:43:30;;;;;;;15.68;2.40;;;;;;;4.12;100.00;99000.47;5049046;28;20040;-78
2022/11/22 06:45:57;;;;;;;16.35;2.28;;;;;;;4.05;100.00;98987.41;5078474;28;20506;-79
2022/11/22 06:48:23;;;;;;;23.13;2.60;;;;;;;4.04;100.00;98987.53;5062548;28;20104;-78
2022/11/22 06:50:48;;;;;;;18.08;2.78;;;;;;;4.06;100.00;98990.97;5064076;28;20032;-78
2022/11/22 06:53:14;;;;;;;19.95;2.45;;;;;;;4.03;100.00;98993.94;5066559;28;20036;-78
2022/11/22 06:55:40;;;;;;;20.15;2.30;;;;;;;4.01;100.00;98998.63;5083154;28;20028;-78
2022/11/22 06:58:05;;;;;;;13.95;2.90;;;;;;;4.06;100.00;98993.69;5083846;28;20039;-77
2022/11/22 07:00:32;;;;;;;15.73;3.45;;;;;;;4.03;100.00;98999.34;5062612;28;20028;-78
2022/11/22 07:02:58;;;;;;;20.92;2.60;;;;;;;4.03;100.00;99005.66;5079013;28;20043;-77
2022/11/22 07:05:23;;;;;;;17.83;2.85;;;;;;;3.95;100.00;98997.28;5046721;28;20028;-77
2022/11/22 07:07:49;;;;;;;16.27;2.67;;;;;;;4.02;100.00;99009.34;5072898;28;20036;-78
2022/11/22 07:10:14;;;;;;;19.38;3.75;;;;;;;3.99;100.00;99016.84;5061797;28;20047;-79
2022/11/22 07:12:40;;;;;;;22.27;2.55;;;;;;;4.08;100.00;99026.91;5047703;28;20495;-79
2022/11/22 07:15:06;;;;;;;6.78;1.83;;;;;;;4.07;100.00;99027.03;5055184;28;20055;-77
2022/11/22 07:17:31;;;;;;;15.68;2.08;;;;;;;4.08;100.00;99035.03;5044007;28;20040;-78
2022/11/22 07:19:57;;;;;;;13.98;2.50;;;;;;;4.08;100.00;99031.47;5027686;28;20029;-77
2022/11/22 07:22:23;;;;;;;20.63;2.72;;;;;;;4.18;100.00;99046.84;5076148;28;20055;-78
2022/11/22 07:24:48;;;;;;;17.75;2.90;;;;;;;4.15;100.00;99040.81;5094780;28;20031;-78
2022/11/22 07:27:14;;;;;;;14.98;2.58;;;;;;;4.05;100.00;99033.47;5080272;28;20025;-78
2022/11/22 07:29:40;;;;;;;10.40;2.25;;;;;;;4.29;100.00;99064.06;5078325;28;20043;-78
2022/11/22 07:32:05;;;;;;;16.00;2.42;;;;;;;4.34;100.00;99054.56;5080489;28;20111;-78
2022/11/22 07:34:30;;;;;;;17.80;3.78;;;;;;;4.37;100.00;99061.59;5079542;28;20040;-78
2022/11/22 07:36:57;;;;;;;18.30;2.60;;;;;;;4.41;100.00;99066.63;5054761;28;20028;-79
2022/11/22 07:39:22;;;;;;;12.82;2.60;;;;;;;4.46;100.00;99063.53;5087893;28;20532;-78
2022/11/22 07:41:48;;;;;;;18.70;2.10;;;;;;;4.52;100.00;99057.59;5053793;28;20032;-81
2022/11/22 07:44:13;;;;;;;15.40;2.17;;;;;;;4.53;100.00;99067.47;5054377;28;20545;-78
2022/11/22 07:46:39;;;;;;;20.83;2.28;;;;;;;4.48;100.00;99066.13;5045019;28;20040;-79
2022/11/22 07:49:04;;;;;;;15.68;2.35;;;;;;;4.42;100.00;99054.78;5040912;28;20494;-80
2022/11/22 07:51:30;;;;;;;16.23;2.15;;;;;;;4.53;100.00;99050.34;5055896;28;21613;-78
2022/11/22 07:53:56;;;;;;;15.85;3.95;;;;;;;4.69;100.00;99066.16;5098963;28;20032;-79
2022/11/22 07:56:22;;;;;;;21.60;2.50;;;;;;;4.70;100.00;99065.19;5098545;28;20028;-81
2022/11/22 07:58:47;;;;;;;10.10;1.63;;;;;;;4.74;100.00;99062.09;5075968;28;20123;-79
2022/11/22 08:01:15;;;;;;;8.07;2.22;;;;;;;4.76;100.00;99064.69;5086288;28;20038;-78
2022/11/22 08:03:42;;;;;;;10.63;2.25;;;;;;;4.80;100.00;99071.56;5079009;28;20383;-79
2022/11/22 08:06:09;;;;;;;17.55;2.75;;;;;;;4.90;100.00;99068.94;5090850;28;20047;-78
2022/11/22 08:08:35;;;;;;;13.63;2.00;;;;;;;4.88;100.00;99069.06;5094439;28;20024;-78
2022/11/22 08:11:01;;;;;;;13.02;2.33;;;;;;;4.93;100.00;99080.38;5075510;28;20036;-79
2022/11/22 08:13:27;;;;;;;13.90;1.73;;;;;;;4.97;100.00;99071.00;5085534;28;20495;-78
2022/11/22 08:15:54;;;;;;;13.98;2.38;;;;;;;4.96;100.00;99077.41;5063461;28;20028;-79
2022/11/22 08:18:20;;;;;;;12.05;2.40;;;;;;;4.93;100.00;99068.66;5081928;28;20028;-80
2022/11/22 08:20:45;;;;;;;9.82;2.13;;;;;;;4.96;100.00;99065.69;5088510;28;20410;-79
2022/11/22 08:23:11;;;;;;;16.05;2.70;;;;;;;4.98;100.00;99058.28;5083622;28;20130;-83
2022/11/22 08:25:36;;;;;;;18.63;2.25;;;;;;;5.02;100.00;99069.72;5094976;28;20057;-81
2022/11/22 08:28:02;;;;;;;13.60;1.63;;;;;;;5.10;100.00;99072.66;5059054;28;20028;-80
2022/11/22 08:30:27;;;;;;;22.52;2.95;;;;;;;5.02;100.00;99059.75;5080438;28;20024;-82
2022/11/22 08:32:54;;;;;;;17.40;1.95;;;;;;;5.04;100.00;99060.47;5068261;28;20063;-82
2022/11/22 08:35:20;;;;;;;13.77;2.00;;;;;;;5.14;100.00;99074.97;5101039;28;20024;-81
2022/11/22 08:37:45;;;;;;;9.98;1.83;;;;;;;5.27;100.00;99069.34;5047707;28;20130;-81
2022/11/22 08:40:12;;;;;;;18.23;1.83;;;;;;;5.24;100.00;99055.19;5061851;28;20036;-81
2022/11/22 08:42:37;;;;;;;9.10;1.73;;;;;;;5.29;100.00;99064.66;5076890;28;20044;-80
2022/11/22 08:45:04;;;;;;;13.15;1.60;;;;;;;5.34;100.00;99057.00;5083437;28;20028;-80
2022/11/22 08:47:30;;;;;;;19.15;2.35;;;;;;;5.36;100.00;99053.28;5066838;28;20028;-80
2022/11/22 08:49:56;;;;;;;12.20;2.05;;;;;;;5.31;100.00;99051.84;5101019;28;20388;-81
2022/11/22 08:52:21;;;;;;;9.32;1.75;;;;;;;5.47;100.00;99072.19;5076808;28;20496;-81
2022/11/22 08:54:47;;;;;;;8.30;1.83;;;;;;;5.45;100.00;99071.47;5067174;28;20498;-82
2022/11/22 08:57:13;;;;;;;15.18;1.70;;;;;;;5.67;100.00;99095.78;5064448;28;20043;-80
2022/11/22 08:59:38;;;;;;;9.45;1.30;;;;;;;5.77;100.00;99100.38;5062737;28;20059;-79
2022/11/22 09:02:04;;;;;;;12.02;1.52;;;;;;;5.69;100.00;99088.34;5060395;28;20096;-81
2022/11/22 09:04:29;;;;;;;8.80;1.52;;;;;;;5.70;100.00;99098.19;5059637;28;20036;-79
2022/11/22 09:06:56;;;;;;;13.60;1.58;;;;;;;5.76;100.00;99096.81;5097292;28;20425;-80
2022/11/22 09:09:21;;;;;;;10.50;1.55;;;;;;;5.56;100.00;99071.41;5095686;28;20067;-81
2022/11/22 09:11:46;;;;;;;12.32;1.60;;;;;;;5.80;100.00;99097.41;5043063;28;20049;-80
2022/11/22 09:14:12;;;;;;;5.80;1.10;;;;;;;5.85;100.00;99106.00;5060709;28;20036;-81
2022/11/22 09:16:37;;;;;;;14.23;1.85;;;;;;;5.77;100.00;99097.66;5066998;28;20065;-81
2022/11/22 09:19:03;;;;;;;9.00;2.13;;;;;;;5.81;100.00;99101.84;5076652;28;20070;-79
2022/11/22 09:21:28;;;;;;;14.88;1.52;;;;;;;5.95;100.00;99106.94;5092087;28;20056;-80
2022/11/22 09:23:54;;;;;;;10.98;2.28;;;;;;;5.99;100.00;99111.13;5076867;28;20069;-80
2022/11/22 09:26:23;;;;;;;9.90;1.50;;;;;;;6.10;100.00;99115.59;5069634;28;20035;-80
2022/11/22 09:28:48;;;;;;;12.50;1.70;;;;;;;6.13;100.00;99109.03;5074535;28;20026;-80
2022/11/22 09:31:17;;;;;;;12.10;1.55;;;;;;;6.05;100.00;99098.81;5079443;28;20464;-80
2022/11/22 09:33:44;;;;;;;9.57;1.40;;;;;;;6.17;100.00;99119.50;5089067;28;20111;-80
2022/11/22 09:36:12;;;;;;;4.13;1.10;;;;;;;6.17;100.00;99115.91;5090485;28;20036;-80
2022/11/22 09:38:38;;;;;;;8.23;1.40;;;;;;;6.17;100.00;99121.34;5078899;28;20136;-80
2022/11/22 09:41:42;;;;;;;10.15;1.48;;;;;;;6.12;100.00;99108.16;5042188;28;21336;-80
2022/11/22 09:44:35;;;;;;;5.45;1.75;;;;;;;6.21;100.00;99118.19;5077739;28;20032;-84
2022/11/22 09:47:19;;;;;;;8.10;1.00;;;;;;;6.24;100.00;99123.38;5066115;28;20025;-81
2022/11/22 09:49:52;;;;;;;6.15;1.10;;;;;;;6.34;100.00;99120.69;5069033;28;20039;-81
2022/11/22 09:52:46;;;;;;;10.10;1.27;;;;;;;6.29;100.00;99113.97;5096700;28;20036;-80
2022/11/22 09:55:22;;;;;;;6.25;1.00;;;;;;;6.30;100.00;99102.94;5087299;28;20024;-81
2022/11/22 09:57:55;;;;;;;9.98;1.25;;;;;;;6.35;100.00;99097.09;5096204;28;20028;-79
2022/11/22 10:00:24;;;;;;;7.40;1.27;;;;;;;6.43;100.00;99100.84;5066336;28;20143;-79
2022/11/22 10:03:04;;;;;;;6.75;1.27;;;;;;;6.54;100.00;99101.72;5071127;28;20028;-78
2022/11/22 10:05:47;;;;;;;5.05;1.00;;;;;;;6.55;100.00;99106.16;5095072;28;20114;-78
2022/11/22 10:08:25;;;;;;;5.27;0.90;;;;;;;6.63;100.00;99111.78;5097636;28;20032;-79
2022/11/22 10:10:55;;;;;;;4.40;0.85;;;;;;;6.55;100.00;99089.84;5093591;28;20028;-79
2022/11/22 10:13:37;;;;;;;8.68;1.40;;;;;;;6.61;100.00;99089.31;5090006;28;20040;-78
2022/11/22 10:16:49;;;;;;;4.03;1.15;;;;;;;6.68;100.00;99097.75;5076043;28;20028;-78
2022/11/22 10:19:20;;;;;;;6.00;1.00;;;;;;;6.70;100.00;99085.72;5075419;28;20040;-79
2022/11/22 10:21:49;;;;;;;11.00;1.38;;;;;;;6.57;100.00;99069.66;5074085;28;20126;-80
2022/11/22 10:24:16;;;;;;;8.68;0.90;;;;;;;6.68;100.00;99076.00;5080745;28;20028;-79
2022/11/22 10:26:43;;;;;;;6.07;0.90;;;;;;;6.76;100.00;99087.03;5058747;28;20563;-78
2022/11/22 10:29:27;;;;;;;1.73;0.85;;;;;;;6.78;100.00;99091.31;5068981;28;20024;-79
2022/11/22 10:32:29;;;;;;;6.78;1.25;;;;;;;6.77;100.00;99070.56;5079024;28;20471;-80
2022/11/22 10:35:13;;;;;;;3.33;1.23;;;;;;;6.80;100.00;99086.63;5073626;28;20048;-81
2022/11/22 10:37:57;;;;;;;5.32;0.90;;;;;;;6.84;100.00;99092.63;5100269;28;20031;-81
2022/11/22 10:40:52;;;;;;;9.45;0.98;;;;;;;6.89;100.00;99071.28;5093728;28;20104;-80
2022/11/22 10:43:30;;;;;;;2.25;0.80;;;;;;;6.93;100.00;99082.75;5078573;28;20471;-80
2022/11/22 10:46:19;;;;;;;1.45;0.85;;;;;;;6.92;100.00;99083.75;5094475;28;20073;-80
2022/11/22 10:49:05;;;;;;;3.38;0.90;;;;;;;6.90;100.00;99081.16;5094160;28;20086;-81
2022/11/22 10:51:55;;;;;;;4.80;0.70;;;;;;;7.08;100.00;99078.59;5065006;28;20029;-79
2022/11/22 10:54:30;;;;;;;3.28;0.50;;;;;;;7.09;100.00;99077.59;5092166;28;20039;-79
2022/11/22 10:57:29;;;;;;;3.15;0.88;;;;;;;7.09;100.00;99069.44;5090180;28;20028;-81
2022/11/22 10:59:55;;;;;;;4.82;0.70;;;;;;;7.11;100.00;99075.59;5094332;28;20512;-82
2022/11/22 11:02:32;;;;;;;3.28;0.70;;;;;;;7.13;100.00;99070.88;5091454;28;20040;-81
2022/11/22 11:04:59;;;;;;;1.45;0.65;;;;;;;7.09;100.00;99068.59;5061725;28;20031;-82
2022/11/22 11:07:25;;;;;;;4.47;0.88;;;;;;;7.04;100.00;99070.88;5096798;28;20127;-81
2022/11/22 11:10:02;;;;;;;2.90;0.70;;;;;;;7.09;100.00;99057.69;5061631;28;20036;-82
2022/11/22 11:12:35;;;;;;;5.50;0.80;;;;;;;7.10;100.00;99062.13;5091193;28;20053;-82
2022/11/22 11:15:14;;;;;;;1.15;0.60;;;;;;;7.28;100.00;99054.09;5084781;28;20039;-82
2022/11/22 11:17:44;;;;;;;4.05;0.77;;;;;;;7.20;100.00;99049.38;5097920;28;20036;-82
2022/11/22 11:20:18;;;;;;;2.47;0.73;;;;;;;7.17;100.00;99045.06;5079833;28;20024;-82
2022/11/22 11:22:44;;;;;;;2.47;0.70;;;;;;;7.32;100.00;99047.34;5097564;28;20036;-82
2022/11/22 11:25:46;;;;;;;3.15;0.77;;;;;;;7.26;100.00;99053.38;5077915;28;20214;-82
2022/11/22 11:28:26;;;;;;;1.20;0.57;;;;;;;7.35;100.00;99050.63;5025982;28;20042;-81
2022/11/22 11:31:05;;;;;;;1.65;0.82;;;;;;;7.41;100.00;99045.59;5044375;28;20051;-81
2022/11/22 11:33:33;;;;;;;6.57;0.65;;;;;;;7.45;100.00;99041.59;5091481;28;20107;-81
2022/11/22 11:36:20;;;;;;;5.30;1.00;;;;;;;7.36;100.00;99041.47;5093649;28;20039;-80
2022/11/22 11:38:51;;;;;;;2.65;0.63;;;;;;;7.47;100.00;99029.53;5072399;28;20043;-81
2022/11/22 11:41:33;;;;;;;0.93;0.52;;;;;;;7.52;100.00;99040.00;5080353;28;20033;-80
2022/11/22 11:44:03;;;;;;;2.33;0.57;;;;;;;7.44;100.00;99028.97;5087118;28;20045;-81
2022/11/22 11:46:44;;;;;;;0.70;0.50;;;;;;;7.53;100.00;99044.44;5082038;28;20108;-81
2022/11/22 11:49:15;;;;;;;0.40;0.40;;;;;;;7.66;100.00;99049.59;5083495;28;20082;-81